Time;durP1;ratioP1;P1;durP2;ratioP2;P2;SDS_P1;SDS_P2;PMS_P1;PMS_P2;Temp;Humidity;BMP_temperature;BMP_pressure;BME280_temperature;BME280_humidity;BME280_pressure;Samples;Min_cycle;Max_cycle;Signal;HPM_P1;HPM_P2
2022/03/20 00:00:37;;;;;;;42.42;24.23;;;;;;;2.42;44.83;102161.09;4935688;29;20486;-76
2022/03/20 00:03:06;;;;;;;59.75;36.58;;;;;;;2.36;44.65;102149.78;4936229;29;20456;-76
2022/03/20 00:05:34;;;;;;;52.92;25.75;;;;;;;2.44;44.86;102166.28;4935916;29;20466;-75
2022/03/20 00:08:00;;;;;;;44.75;25.90;;;;;;;2.38;44.39;102142.97;4936007;29;20039;-76
2022/03/20 00:10:26;;;;;;;41.97;23.40;;;;;;;2.43;44.34;102155.13;4935752;29;20128;-75
2022/03/20 00:12:52;;;;;;;42.50;24.75;;;;;;;2.43;44.71;102164.56;4935974;29;20126;-76
2022/03/20 00:15:18;;;;;;;43.92;24.50;;;;;;;2.42;44.64;102155.97;4935633;29;20094;-76
2022/03/20 00:17:43;;;;;;;39.83;23.30;;;;;;;2.34;44.27;102144.59;4936041;29;20472;-76
2022/03/20 00:20:09;;;;;;;40.50;23.05;;;;;;;2.32;45.06;102151.41;4935900;29;20539;-76
2022/03/20 00:22:36;;;;;;;43.33;24.23;;;;;;;2.27;44.50;102146.97;4935555;29;20039;-76
2022/03/20 00:25:02;;;;;;;41.63;23.73;;;;;;;2.37;44.56;102156.69;4935696;29;20023;-76
2022/03/20 00:27:28;;;;;;;38.83;23.40;;;;;;;2.29;44.38;102147.88;4935262;29;20543;-76
2022/03/20 00:29:54;;;;;;;39.83;22.20;;;;;;;2.33;44.25;102154.84;4935428;29;20032;-76
2022/03/20 00:32:20;;;;;;;43.35;25.17;;;;;;;2.25;44.92;102158.06;4934132;29;20024;-76
2022/03/20 00:34:45;;;;;;;44.88;23.88;;;;;;;2.20;44.83;102133.94;4935620;29;20024;-76
2022/03/20 00:37:11;;;;;;;40.53;23.38;;;;;;;2.18;44.92;102132.16;4935502;29;20023;-77
2022/03/20 00:39:36;;;;;;;40.30;24.00;;;;;;;2.18;44.82;102134.72;4935100;29;20032;-76
2022/03/20 00:42:03;;;;;;;40.22;25.42;;;;;;;2.29;44.21;102141.03;4935367;29;20063;-76
2022/03/20 00:44:28;;;;;;;41.97;23.67;;;;;;;2.17;44.55;102122.69;4934961;29;20027;-76
2022/03/20 00:46:54;;;;;;;39.67;24.60;;;;;;;2.25;44.63;102132.38;4935457;29;20440;-76
2022/03/20 00:49:19;;;;;;;103.10;44.95;;;;;;;2.24;44.41;102140.06;4935378;29;20032;-76
2022/03/20 00:51:45;;;;;;;73.43;34.95;;;;;;;2.17;45.01;102138.13;4933938;29;20032;-75
2022/03/20 00:54:11;;;;;;;51.50;25.58;;;;;;;2.13;44.95;102136.31;4935141;29;20036;-75
2022/03/20 00:56:37;;;;;;;43.72;23.63;;;;;;;1.93;44.77;102102.31;4934975;29;20498;-76
2022/03/20 00:59:03;;;;;;;42.60;23.98;;;;;;;2.00;44.43;102115.41;4934828;29;20027;-76
2022/03/20 01:01:29;;;;;;;38.75;24.48;;;;;;;2.06;44.77;102130.09;4934936;29;20401;-75
2022/03/20 01:03:56;;;;;;;38.30;25.35;;;;;;;2.03;45.06;102127.47;4935223;29;20048;-76
2022/03/20 01:06:25;;;;;;;38.97;23.63;;;;;;;2.02;45.18;102130.84;4934913;29;20036;-76
2022/03/20 01:08:51;;;;;;;36.75;23.27;;;;;;;1.99;45.19;102125.66;4935022;29;20087;-76
2022/03/20 01:11:16;;;;;;;36.78;21.88;;;;;;;1.96;45.27;102138.41;4934957;29;20095;-76
2022/03/20 01:13:42;;;;;;;40.63;22.83;;;;;;;1.91;45.80;102122.84;4934820;29;20377;-76
2022/03/20 01:16:08;;;;;;;36.42;22.15;;;;;;;1.84;45.48;102112.34;4934805;29;20031;-75
2022/03/20 01:18:34;;;;;;;40.92;24.55;;;;;;;1.78;45.42;102110.50;4933492;29;20028;-75
2022/03/20 01:20:59;;;;;;;43.90;23.73;;;;;;;1.67;45.77;102088.75;4934815;29;20026;-76
2022/03/20 01:23:25;;;;;;;39.92;25.02;;;;;;;1.81;45.75;102123.41;4934587;29;20032;-76
2022/03/20 01:25:51;;;;;;;36.47;23.55;;;;;;;1.78;45.61;102110.50;4934655;29;20032;-75
2022/03/20 01:28:19;;;;;;;43.33;24.75;;;;;;;1.81;46.40;102119.97;4934651;29;20597;-76
2022/03/20 01:30:45;;;;;;;40.80;23.75;;;;;;;1.78;46.30;102113.06;4934503;29;20472;-75
2022/03/20 01:33:11;;;;;;;44.63;25.85;;;;;;;1.75;46.08;102103.56;4934979;29;20032;-75
2022/03/20 01:35:36;;;;;;;58.42;28.58;;;;;;;1.73;45.39;102091.50;4934615;29;20035;-75
2022/03/20 01:38:03;;;;;;;62.50;27.75;;;;;;;1.72;45.48;102098.31;4934643;29;20114;-75
2022/03/20 01:40:30;;;;;;;51.20;27.10;;;;;;;1.62;45.84;102087.75;4933066;29;20508;-75
2022/03/20 01:42:55;;;;;;;43.63;22.98;;;;;;;1.72;45.95;102102.59;4934533;29;20110;-76
2022/03/20 01:45:22;;;;;;;42.20;23.35;;;;;;;1.61;45.86;102093.72;4935006;29;20020;-75
2022/03/20 01:47:49;;;;;;;35.92;23.23;;;;;;;1.66;45.76;102097.28;4934485;29;20032;-76
2022/03/20 01:50:17;;;;;;;38.65;22.42;;;;;;;1.70;46.04;102107.69;4934554;29;20712;-75
2022/03/20 01:52:46;;;;;;;36.00;22.23;;;;;;;1.54;46.26;102082.38;4934296;29;20468;-75
2022/03/20 01:55:13;;;;;;;38.85;22.85;;;;;;;1.59;45.71;102109.06;4934428;29;20028;-75
2022/03/20 01:57:39;;;;;;;42.97;24.88;;;;;;;1.39;46.48;102074.22;4934108;29;20032;-75
2022/03/20 02:00:07;;;;;;;38.72;23.95;;;;;;;1.48;46.57;102093.34;4934526;29;20028;-75
2022/03/20 02:02:32;;;;;;;39.50;23.88;;;;;;;1.41;46.28;102085.41;4934222;29;20036;-76
2022/03/20 02:04:58;;;;;;;38.47;22.90;;;;;;;1.41;46.45;102091.41;4934463;29;20027;-75
2022/03/20 02:07:25;;;;;;;35.80;22.35;;;;;;;1.39;46.63;102090.53;4934420;29;20095;-75
2022/03/20 02:09:51;;;;;;;45.20;25.02;;;;;;;1.48;46.00;102110.47;4934283;29;20028;-76
2022/03/20 02:12:17;;;;;;;45.55;25.95;;;;;;;1.48;46.20;102100.19;4934658;29;20059;-75
2022/03/20 02:14:43;;;;;;;41.17;23.67;;;;;;;1.45;46.53;102100.09;4937963;29;20027;-75
2022/03/20 02:17:10;;;;;;;40.42;23.33;;;;;;;1.44;46.53;102093.22;4938073;29;20074;-75
2022/03/20 02:19:38;;;;;;;217.68;74.32;;;;;;;1.42;46.71;102090.59;4937663;29;20028;-75
2022/03/20 02:22:04;;;;;;;56.38;27.13;;;;;;;1.40;46.49;102087.13;4937796;29;20078;-76
2022/03/20 02:24:36;;;;;;;44.30;24.17;;;;;;;1.43;46.22;102087.22;4937471;29;20111;-75
2022/03/20 02:27:09;;;;;;;43.60;25.40;;;;;;;1.41;46.72;102085.41;4937956;29;20028;-75
2022/03/20 02:29:35;;;;;;;38.72;22.63;;;;;;;1.39;45.98;102071.66;4937660;29;20102;-76
2022/03/20 02:32:02;;;;;;;43.22;24.98;;;;;;;1.43;46.61;102079.50;4937699;29;20578;-75
2022/03/20 02:34:28;;;;;;;32.42;21.38;;;;;;;1.32;46.56;102064.59;4937471;29;20107;-76
2022/03/20 02:36:55;;;;;;;40.85;24.70;;;;;;;1.41;46.49;102082.84;4937515;29;20425;-76
2022/03/20 02:39:21;;;;;;;40.20;22.55;;;;;;;1.37;46.45;102081.00;4937719;29;20124;-76
2022/03/20 02:41:48;;;;;;;39.42;22.95;;;;;;;1.34;46.49;102075.78;4937431;29;20575;-75
2022/03/20 02:44:14;;;;;;;40.55;24.27;;;;;;;1.33;46.51;102066.34;4937741;29;20032;-75
2022/03/20 02:46:40;;;;;;;41.80;23.83;;;;;;;1.43;46.41;102089.78;4937317;29;20039;-76
2022/03/20 02:49:06;;;;;;;51.28;26.55;;;;;;;1.39;46.18;102089.63;4937500;29;20032;-76
2022/03/20 02:51:32;;;;;;;41.13;23.35;;;;;;;1.29;46.09;102069.63;4937059;29;20480;-76
2022/03/20 02:53:58;;;;;;;35.03;22.05;;;;;;;1.24;46.41;102070.38;4937509;29;20554;-76
2022/03/20 02:56:27;;;;;;;39.88;24.45;;;;;;;1.33;46.34;102090.31;4937427;29;20035;-76
2022/03/20 02:58:53;;;;;;;39.85;23.63;;;;;;;1.21;46.62;102077.97;4937159;29;20085;-76
2022/03/20 03:01:18;;;;;;;44.28;25.00;;;;;;;1.31;46.21;102102.25;4937137;29;20039;-76
2022/03/20 03:03:45;;;;;;;37.38;22.63;;;;;;;1.32;46.36;102101.41;4936938;29;20071;-76
2022/03/20 03:06:12;;;;;;;40.53;23.98;;;;;;;1.30;46.58;102089.34;4937011;29;20035;-76
2022/03/20 03:11:21;;;;;;;40.20;23.67;;;;;;;1.27;46.52;102087.56;4937212;29;20054;-76
2022/03/20 03:13:47;;;;;;;40.03;23.95;;;;;;;1.22;46.86;102078.84;4936575;29;20051;-76
2022/03/20 03:16:15;;;;;;;34.35;21.88;;;;;;;1.27;46.17;102090.16;4936900;29;20227;-76
2022/03/20 03:18:47;;;;;;;40.78;22.83;;;;;;;1.28;46.39;102098.72;4936579;29;20507;-75
2022/03/20 03:21:17;;;;;;;38.55;24.42;;;;;;;1.26;46.48;102093.50;4936972;29;20041;-76
2022/03/20 03:23:44;;;;;;;38.22;24.05;;;;;;;1.16;46.21;102084.66;4936168;29;20079;-77
2022/03/20 03:26:12;;;;;;;35.15;22.23;;;;;;;1.25;46.07;102099.47;4936383;29;20031;-76
2022/03/20 03:28:37;;;;;;;45.25;26.55;;;;;;;1.30;46.03;102102.19;4936464;29;20043;-75
2022/03/20 03:31:08;;;;;;;47.28;27.25;;;;;;;1.20;45.52;102081.38;4936596;29;20032;-76
2022/03/20 03:33:35;;;;;;;42.83;25.38;;;;;;;1.24;45.90;102090.03;4936534;29;20054;-76
2022/03/20 03:36:01;;;;;;;40.45;24.58;;;;;;;1.30;45.28;102092.78;4936733;29;20067;-75
2022/03/20 03:38:30;;;;;;;39.22;24.77;;;;;;;1.35;45.11;102095.50;4936650;29;20036;-76
2022/03/20 03:40:56;;;;;;;36.70;23.40;;;;;;;1.33;45.12;102089.44;4936366;29;20071;-75
2022/03/20 03:43:22;;;;;;;42.28;25.92;;;;;;;1.25;45.05;102078.94;4936341;29;20489;-76
2022/03/20 03:45:48;;;;;;;37.38;24.60;;;;;;;1.34;45.05;102091.19;4936053;29;20501;-76
2022/03/20 03:48:16;;;;;;;38.22;21.90;;;;;;;1.31;45.51;102084.28;4936524;29;20027;-76
2022/03/20 03:50:43;;;;;;;36.75;21.70;;;;;;;1.36;44.63;102095.56;4936127;29;20181;-76
2022/03/20 03:53:12;;;;;;;32.55;22.23;;;;;;;1.45;45.01;102100.97;4936330;29;20042;-75
2022/03/20 03:55:39;;;;;;;42.15;26.48;;;;;;;1.38;44.83;102080.19;4936059;29;20038;-75
2022/03/20 03:58:05;;;;;;;39.58;21.83;;;;;;;1.41;44.57;102085.41;4936136;29;20058;-75
2022/03/20 04:00:32;;;;;;;42.75;24.85;;;;;;;1.41;44.90;102096.56;4935119;29;20027;-75
2022/03/20 04:02:59;;;;;;;38.25;24.42;;;;;;;1.27;45.15;102087.56;4936215;29;20452;-75
2022/03/20 04:05:24;;;;;;;44.80;25.98;;;;;;;1.40;44.78;102097.38;4936179;29;20036;-75
2022/03/20 04:07:50;;;;;;;35.38;21.92;;;;;;;1.43;44.47;102106.84;4935759;29;20490;-75
2022/03/20 04:10:17;;;;;;;37.17;23.10;;;;;;;1.32;45.04;102092.84;4935925;29;20027;-76
2022/03/20 04:12:45;;;;;;;38.38;23.60;;;;;;;1.27;45.28;102092.72;4935561;29;20043;-76
2022/03/20 04:15:12;;;;;;;40.90;22.67;;;;;;;1.30;45.50;102110.75;4936078;29;20028;-76
2022/03/20 04:17:39;;;;;;;39.42;23.58;;;;;;;1.22;45.44;102095.16;4935726;29;20032;-75
2022/03/20 04:20:06;;;;;;;38.92;22.15;;;;;;;1.11;46.01;102091.38;4935759;29;20027;-76
2022/03/20 04:22:34;;;;;;;38.28;24.33;;;;;;;1.05;46.08;102088.59;4935735;29;20063;-75
2022/03/20 04:24:59;;;;;;;36.53;22.60;;;;;;;1.05;46.49;102097.97;4935629;29;20086;-76
2022/03/20 04:27:25;;;;;;;41.45;23.98;;;;;;;1.03;46.81;102102.22;4935558;29;20036;-76
2022/03/20 04:29:52;;;;;;;45.55;24.63;;;;;;;0.98;46.93;102104.63;4935550;29;20063;-76
2022/03/20 04:32:18;;;;;;;40.13;22.95;;;;;;;0.87;47.19;102100.84;4935678;29;20035;-75
2022/03/20 04:34:44;;;;;;;36.97;24.40;;;;;;;0.81;47.37;102098.09;4935375;29;20023;-76
2022/03/20 04:37:10;;;;;;;48.72;28.13;;;;;;;0.84;46.98;102117.00;4935183;29;20111;-75
2022/03/20 04:39:38;;;;;;;43.15;24.80;;;;;;;0.75;47.96;102097.03;4935105;29;20039;-75
2022/03/20 04:42:04;;;;;;;41.38;25.20;;;;;;;0.76;47.71;102113.34;4935301;29;20110;-76
2022/03/20 04:44:31;;;;;;;41.22;24.92;;;;;;;0.67;48.01;102107.88;4935283;29;20032;-75
2022/03/20 04:46:57;;;;;;;41.17;24.80;;;;;;;0.59;48.13;102107.66;4935498;29;20231;-74
2022/03/20 05:00:19;;;;;;;37.97;24.90;;;;;;;0.57;48.25;102093.03;4934946;29;20042;-75
2022/03/20 05:02:45;;;;;;;41.35;25.98;;;;;;;0.59;48.98;102093.94;4934685;29;20459;-75
2022/03/20 05:05:11;;;;;;;40.80;25.50;;;;;;;0.64;48.26;102102.66;4935232;29;20038;-75
2022/03/20 05:07:36;;;;;;;47.85;27.15;;;;;;;0.72;48.39;102114.94;4934945;29;20035;-75
2022/03/20 05:15:31;;;;;;;37.53;24.63;;;;;;;0.77;48.17;102122.78;4935131;29;20034;-75
2022/03/20 05:17:57;;;;;;;42.33;27.13;;;;;;;0.78;47.81;102115.94;4934789;29;20031;-75
2022/03/20 05:20:23;;;;;;;43.75;25.13;;;;;;;0.97;47.98;102121.72;4934878;29;20024;-75
2022/03/20 05:22:49;;;;;;;44.22;27.83;;;;;;;1.20;47.27;102121.56;4934647;29;20028;-75
2022/03/20 05:25:16;;;;;;;49.42;26.80;;;;;;;1.40;46.54;102114.50;4934856;29;20075;-76
2022/03/20 05:27:42;;;;;;;42.60;25.30;;;;;;;1.77;45.44;102113.00;4934425;29;20480;-76
2022/03/20 05:30:08;;;;;;;51.22;26.83;;;;;;;2.13;45.29;102121.75;4934901;29;20111;-75
2022/03/20 05:32:35;;;;;;;38.38;24.33;;;;;;;2.34;44.31;102123.16;4934850;29;20055;-76
2022/03/20 05:35:07;;;;;;;46.83;27.00;;;;;;;2.52;44.08;102131.34;4934616;29;20433;-76
2022/03/20 05:37:33;;;;;;;52.60;29.88;;;;;;;2.60;43.68;102137.56;4934688;29;20118;-76
2022/03/20 05:39:58;;;;;;;44.78;26.92;;;;;;;2.73;43.21;102120.72;4934395;29;20032;-76
2022/03/20 05:42:24;;;;;;;44.88;27.73;;;;;;;3.06;42.76;102128.41;4934812;29;20484;-76
2022/03/20 05:44:50;;;;;;;36.65;24.70;;;;;;;3.77;41.84;102130.00;4934508;29;20480;-75
2022/03/20 05:47:16;;;;;;;47.72;26.05;;;;;;;4.31;40.12;102130.22;4934993;29;20472;-76
2022/03/20 05:49:41;;;;;;;42.88;26.10;;;;;;;4.43;40.28;102137.34;4938318;29;20083;-76
2022/03/20 05:52:07;;;;;;;47.25;28.27;;;;;;;4.24;39.99;102138.69;4938466;29;20043;-76
2022/03/20 05:54:33;;;;;;;45.95;29.08;;;;;;;4.27;39.93;102137.88;4938414;29;20522;-76
2022/03/20 05:59:42;;;;;;;45.03;28.80;;;;;;;5.28;38.18;102149.94;4937980;29;20064;-75
2022/03/20 06:02:11;;;;;;;46.25;29.15;;;;;;;5.72;36.95;102146.25;4937360;29;20035;-76
2022/03/20 06:04:38;;;;;;;45.15;29.08;;;;;;;5.55;37.57;102146.88;4938271;29;20031;-75
2022/03/20 06:07:04;;;;;;;44.75;27.55;;;;;;;5.20;37.59;102142.06;4937962;29;20483;-76
2022/03/20 06:09:30;;;;;;;42.78;27.73;;;;;;;5.34;37.81;102150.03;4938035;29;20036;-75
2022/03/20 06:11:56;;;;;;;46.00;27.88;;;;;;;6.12;36.54;102151.13;4937849;29;20031;-75
2022/03/20 06:14:21;;;;;;;44.78;27.80;;;;;;;7.26;35.39;102138.34;4938207;29;20059;-76
2022/03/20 06:16:48;;;;;;;45.83;27.95;;;;;;;7.29;34.41;102124.53;4937918;29;20119;-74
2022/03/20 06:19:17;;;;;;;42.53;27.05;;;;;;;6.93;35.58;102150.19;4937999;29;20027;-73
2022/03/20 06:21:43;;;;;;;46.20;27.88;;;;;;;6.73;36.10;102162.09;4937767;29;20522;-73
2022/03/20 06:24:09;;;;;;;44.28;28.52;;;;;;;7.14;35.17;102171.97;4937905;29;20035;-73
2022/03/20 06:26:35;;;;;;;41.88;26.75;;;;;;;7.84;33.81;102143.88;4938106;29;20024;-74
2022/03/20 06:29:02;;;;;;;46.30;28.08;;;;;;;7.92;33.43;102172.44;4937731;29;20491;-74
2022/03/20 06:31:27;;;;;;;41.42;27.52;;;;;;;7.41;33.87;102169.56;4937873;29;20055;-73
2022/03/20 06:33:54;;;;;;;45.10;29.02;;;;;;;7.57;34.20;102177.44;4937603;29;20131;-76
2022/03/20 06:36:19;;;;;;;44.60;28.55;;;;;;;8.12;33.43;102169.94;4937656;29;20023;-76
2022/03/20 06:38:45;;;;;;;47.55;29.08;;;;;;;8.94;31.55;102177.09;4937336;29;20035;-75
2022/03/20 06:41:10;;;;;;;44.42;27.58;;;;;;;8.67;31.63;102183.97;4937623;29;20110;-75
2022/03/20 06:43:37;;;;;;;42.45;27.13;;;;;;;8.34;32.32;102174.31;4936340;29;20047;-76
2022/03/20 06:46:03;;;;;;;43.08;28.00;;;;;;;8.37;32.48;102168.31;4937328;29;20031;-76
2022/03/20 06:48:29;;;;;;;42.22;28.35;;;;;;;9.71;30.91;102186.53;4937466;29;20099;-76
2022/03/20 06:50:54;;;;;;;43.08;29.17;;;;;;;9.36;30.38;102167.53;4937175;29;20440;-76
2022/03/20 06:53:20;;;;;;;41.83;28.50;;;;;;;9.13;30.79;102189.19;4937237;29;20035;-76
2022/03/20 06:55:46;;;;;;;47.45;31.58;;;;;;;8.91;31.06;102190.94;4937192;29;20047;-76
2022/03/20 06:58:13;;;;;;;49.28;30.02;;;;;;;9.50;30.39;102171.84;4937051;29;20373;-76
2022/03/20 07:00:40;;;;;;;56.08;35.65;;;;;;;9.68;30.25;102188.28;4937251;29;20133;-75
2022/03/20 07:03:07;;;;;;;43.97;30.20;;;;;;;9.53;30.75;102180.53;4937042;29;20397;-76
2022/03/20 07:05:33;;;;;;;41.92;27.27;;;;;;;9.80;30.18;102172.63;4937089;29;20032;-76
2022/03/20 07:08:00;;;;;;;49.95;30.38;;;;;;;11.13;28.74;102169.28;4937055;29;20035;-75
2022/03/20 07:10:26;;;;;;;42.67;27.08;;;;;;;11.10;28.31;102181.47;4937180;29;20054;-76
2022/03/20 07:13:48;;;;;;;46.85;28.38;;;;;;;11.57;28.57;102174.94;4936908;29;20047;-76
2022/03/20 07:15:42;;;;;;;41.22;27.85;;;;;;;12.47;26.67;102164.31;4936852;29;20043;-76
2022/03/20 07:18:10;;;;;;;36.25;25.55;;;;;;;12.18;26.85;102174.28;4936771;29;20047;-75
2022/03/20 07:20:37;;;;;;;44.97;27.73;;;;;;;13.29;26.54;102161.25;4936987;29;20106;-76
2022/03/20 07:23:03;;;;;;;43.90;28.60;;;;;;;14.03;24.35;102173.81;4936778;29;20028;-76
2022/03/20 07:30:56;;;;;;;40.22;29.70;;;;;;;13.26;25.20;102178.78;4936442;29;20208;-75
2022/03/20 07:33:25;;;;;;;39.47;29.83;;;;;;;14.36;24.11;102176.59;4936146;29;20130;-75
2022/03/20 07:35:51;;;;;;;40.35;26.08;;;;;;;15.52;23.19;102175.56;4936516;29;20063;-77
2022/03/20 07:38:17;;;;;;;41.00;29.45;;;;;;;17.42;21.61;102173.22;4967405;28;20074;-75
2022/03/20 07:40:42;;;;;;;39.47;28.92;;;;;;;17.76;20.42;102159.72;4936465;29;20024;-76
2022/03/20 07:43:08;;;;;;;42.88;29.58;;;;;;;18.94;18.98;102161.28;4936131;29;20031;-76
2022/03/20 07:45:34;;;;;;;44.20;30.35;;;;;;;19.75;18.96;102172.78;4936575;29;20028;-76
2022/03/20 07:48:00;;;;;;;46.55;31.02;;;;;;;20.52;17.24;102163.94;4935825;29;20032;-76
2022/03/20 07:50:25;;;;;;;43.47;29.35;;;;;;;18.84;18.10;102181.06;4936009;29;20102;-76
2022/03/20 07:52:51;;;;;;;42.83;29.90;;;;;;;16.00;20.04;102190.88;4934875;29;20063;-77
2022/03/20 07:55:17;;;;;;;51.70;31.38;;;;;;;13.73;22.37;102202.31;4936315;29;20038;-76
2022/03/20 07:57:42;;;;;;;43.42;28.83;;;;;;;12.60;23.96;102180.66;4936041;29;20032;-75
2022/03/20 08:00:09;;;;;;;45.28;30.38;;;;;;;11.37;25.11;102191.66;4935960;29;20032;-75
2022/03/20 08:02:34;;;;;;;41.83;30.42;;;;;;;10.52;26.25;102193.19;4936261;29;20032;-75
2022/03/20 08:05:01;;;;;;;43.80;30.25;;;;;;;9.96;27.21;102183.88;4935955;29;20028;-75
2022/03/20 08:07:26;;;;;;;47.80;31.40;;;;;;;9.61;28.04;102210.00;4936077;29;20027;-75
2022/03/20 08:09:52;;;;;;;44.60;28.95;;;;;;;9.27;28.48;102188.31;4934091;29;20035;-75
2022/03/20 08:12:17;;;;;;;45.13;30.52;;;;;;;9.24;28.94;102210.03;4935382;29;20043;-75
2022/03/20 08:14:44;;;;;;;44.47;28.70;;;;;;;8.99;29.03;102194.41;4934838;28;20035;-76
2022/03/20 08:17:10;;;;;;;46.08;31.00;;;;;;;8.73;29.42;102178.78;4935754;29;20032;-76
2022/03/20 08:19:35;;;;;;;45.20;30.88;;;;;;;8.48;29.67;102177.88;4936012;29;20357;-75
2022/03/20 08:22:03;;;;;;;46.70;31.50;;;;;;;8.29;29.88;102212.41;4935411;29;20353;-75
2022/03/20 08:24:28;;;;;;;73.07;45.28;;;;;;;7.99;30.79;102205.34;4935502;29;20038;-76
2022/03/20 08:26:54;;;;;;;42.30;29.02;;;;;;;7.78;31.35;102197.44;4966034;28;20031;-75
2022/03/20 08:29:20;;;;;;;44.40;31.13;;;;;;;7.53;31.44;102210.25;4935725;29;20483;-75
2022/03/20 08:31:47;;;;;;;42.80;28.65;;;;;;;7.54;31.83;102209.41;4935682;29;20031;-75
2022/03/20 08:34:15;;;;;;;46.05;29.95;;;;;;;7.38;31.81;102200.66;4935330;29;20040;-75
2022/03/20 08:36:44;;;;;;;44.22;29.50;;;;;;;7.59;32.20;102204.28;4935600;29;20035;-75
2022/03/20 08:39:10;;;;;;;42.83;28.38;;;;;;;7.64;32.05;102193.06;4935088;29;20404;-75
2022/03/20 08:41:36;;;;;;;41.30;28.35;;;;;;;7.72;31.59;102216.47;4935310;29;20087;-75
2022/03/20 08:44:06;;;;;;;50.95;32.58;;;;;;;7.42;32.07;102206.75;4935297;29;20464;-75
2022/03/20 08:46:32;;;;;;;48.90;30.80;;;;;;;7.18;32.62;102203.09;4935434;29;20032;-74
2022/03/20 08:48:58;;;;;;;46.83;30.77;;;;;;;7.10;32.48;102202.16;4935178;29;20384;-74
2022/03/20 08:51:24;;;;;;;43.65;28.23;;;;;;;7.16;32.72;102198.75;4935417;29;20035;-74
2022/03/20 08:53:50;;;;;;;45.35;30.02;;;;;;;7.35;32.81;102185.06;4935313;29;20043;-75
2022/03/20 08:56:15;;;;;;;45.38;30.25;;;;;;;7.46;32.56;102188.63;4935111;29;20035;-75
2022/03/20 08:58:41;;;;;;;46.03;29.67;;;;;;;7.48;32.09;102191.22;4935188;29;20031;-75
2022/03/20 09:01:07;;;;;;;47.47;30.40;;;;;;;7.49;32.23;102180.84;4934866;29;20519;-75
2022/03/20 09:03:33;;;;;;;42.15;29.17;;;;;;;7.59;32.64;102196.50;4935174;29;20114;-76
2022/03/20 09:05:59;;;;;;;45.25;30.58;;;;;;;7.37;32.49;102183.34;4934800;29;20436;-76
2022/03/20 09:08:24;;;;;;;45.85;29.73;;;;;;;7.32;32.50;102179.88;4934956;29;20032;-75
2022/03/20 09:10:51;;;;;;;46.30;31.33;;;;;;;7.14;32.53;102183.19;4935118;29;20144;-74
2022/03/20 09:13:16;;;;;;;40.65;28.85;;;;;;;7.04;32.64;102167.53;4934711;29;20054;-75
2022/03/20 09:15:42;;;;;;;47.65;30.80;;;;;;;6.99;32.54;102160.63;4934935;29;20032;-76
2022/03/20 09:20:51;;;;;;;51.33;29.52;;;;;;;7.20;33.05;102175.44;4934514;29;20086;-75
2022/03/20 09:23:16;;;;;;;45.90;30.77;;;;;;;7.24;33.53;102173.75;4934698;29;20110;-75
2022/03/20 09:25:42;;;;;;;54.75;32.88;;;;;;;7.16;33.25;102160.75;4934957;29;20023;-75
2022/03/20 09:28:09;;;;;;;48.95;31.27;;;;;;;7.29;34.25;102166.00;4934643;29;20379;-76
2022/03/20 09:30:37;;;;;;;43.35;29.77;;;;;;;7.42;33.88;102162.66;4934826;29;20064;-76
2022/03/20 09:33:04;;;;;;;41.72;29.30;;;;;;;7.56;33.60;102160.16;4934490;29;20145;-75
2022/03/20 09:35:31;;;;;;;44.22;28.15;;;;;;;7.80;32.98;102175.88;4934636;29;20024;-75
2022/03/20 09:37:56;;;;;;;41.15;28.95;;;;;;;7.85;32.84;102181.06;4934329;29;20043;-75
2022/03/20 09:40:24;;;;;;;49.08;29.02;;;;;;;7.75;32.55;102169.75;4934713;29;20039;-75
2022/03/20 09:42:50;;;;;;;42.40;27.83;;;;;;;7.69;31.90;102164.53;4934870;29;20028;-75
2022/03/20 09:45:17;;;;;;;38.10;26.25;;;;;;;7.61;32.08;102169.69;4934381;29;20447;-76
2022/03/20 09:47:43;;;;;;;43.90;28.00;;;;;;;7.47;32.03;102174.78;4934626;29;20036;-75
2022/03/20 09:50:10;;;;;;;44.20;28.75;;;;;;;7.44;32.74;102168.72;4934239;29;20027;-75
2022/03/20 09:52:37;;;;;;;42.10;26.95;;;;;;;7.33;32.75;102162.56;4934411;29;20114;-75
2022/03/20 09:55:04;;;;;;;44.40;29.48;;;;;;;7.48;32.86;102173.94;4965266;28;20450;-75
2022/03/20 09:57:29;;;;;;;43.72;28.35;;;;;;;7.53;32.60;102160.13;4965226;28;20368;-76
2022/03/20 10:00:04;;;;;;;42.63;28.38;;;;;;;7.69;32.80;102173.19;4934247;29;20083;-75
2022/03/20 10:02:30;;;;;;;42.72;27.63;;;;;;;7.69;32.62;102170.59;4934552;29;20119;-74
2022/03/20 10:04:59;;;;;;;57.80;32.15;;;;;;;7.71;32.20;102176.69;4934192;29;20484;-75
2022/03/20 10:07:30;;;;;;;46.35;31.52;;;;;;;7.72;32.76;102168.03;4934631;29;20087;-74
2022/03/20 10:10:10;;;;;;;43.17;29.88;;;;;;;7.74;32.47;102149.88;4934300;29;20030;-75
2022/03/20 10:12:38;;;;;;;39.85;26.23;;;;;;;7.92;31.95;102155.16;4934226;29;20052;-76
2022/03/20 10:15:05;;;;;;;37.80;26.50;;;;;;;8.00;31.43;102150.84;4934180;29;20020;-75
2022/03/20 10:17:31;;;;;;;39.97;25.38;;;;;;;8.07;31.35;102143.09;4934244;29;20036;-75
2022/03/20 10:20:17;;;;;;;38.00;26.08;;;;;;;8.24;31.29;102168.25;4934428;29;20423;-75
2022/03/20 10:22:44;;;;;;;39.60;24.10;;;;;;;8.28;30.72;102168.25;4934409;29;20508;-75
2022/03/20 10:25:13;;;;;;;37.70;24.92;;;;;;;8.28;30.14;102163.94;4964798;28;20027;-75
2022/03/20 10:27:53;;;;;;;37.50;25.33;;;;;;;8.10;30.32;102136.19;4934086;29;20476;-75
2022/03/20 10:30:19;;;;;;;36.70;24.25;;;;;;;8.31;30.51;102155.31;4934249;29;20107;-75
2022/03/20 10:32:48;;;;;;;34.47;24.13;;;;;;;8.31;30.58;102168.28;4934147;29;20131;-75
2022/03/20 10:35:14;;;;;;;36.92;24.67;;;;;;;8.28;30.30;102158.75;4937179;29;20034;-75
2022/03/20 10:37:57;;;;;;;49.97;30.95;;;;;;;8.25;30.99;102159.59;4937689;29;20390;-74
2022/03/20 10:40:25;;;;;;;30.42;22.55;;;;;;;8.24;30.23;102144.03;4937520;29;20383;-74
2022/03/20 10:43:14;;;;;;;32.40;21.77;;;;;;;8.35;30.64;102142.31;4937711;29;20086;-74
2022/03/20 10:45:49;;;;;;;29.80;19.67;;;;;;;8.63;30.50;102152.78;4937604;29;20110;-75
2022/03/20 10:48:20;;;;;;;32.40;22.27;;;;;;;8.66;29.91;102140.66;4967994;28;20038;-75
2022/03/20 10:50:47;;;;;;;25.20;19.10;;;;;;;8.67;29.24;102141.53;4937247;29;20027;-75
2022/03/20 10:53:12;;;;;;;28.52;20.95;;;;;;;8.69;29.45;102151.06;4937280;29;20032;-75
2022/03/20 10:55:38;;;;;;;29.80;20.85;;;;;;;8.68;30.17;102128.56;4937693;29;20032;-75
2022/03/20 10:58:23;;;;;;;29.80;20.00;;;;;;;8.85;28.15;102132.88;4937105;29;20043;-75
2022/03/20 11:00:49;;;;;;;27.23;19.70;;;;;;;8.85;28.60;102140.66;4937132;29;20027;-74
2022/03/20 11:03:16;;;;;;;31.55;21.13;;;;;;;8.86;28.72;102147.63;4937127;29;20087;-75
2022/03/20 11:05:41;;;;;;;33.58;20.73;;;;;;;8.83;29.31;102134.63;4937336;29;20024;-74
2022/03/20 11:08:06;;;;;;;30.52;19.65;;;;;;;8.90;28.92;102129.44;4937063;29;20594;-75
2022/03/20 11:10:33;;;;;;;32.97;20.27;;;;;;;8.89;28.66;102119.91;4937057;29;20428;-75
2022/03/20 11:13:01;;;;;;;27.92;19.67;;;;;;;8.92;29.31;102109.50;4967331;28;20051;-77
2022/03/20 11:15:28;;;;;;;28.88;19.00;;;;;;;9.12;28.91;102132.03;4937077;29;20282;-79
2022/03/20 11:17:56;;;;;;;29.05;19.85;;;;;;;9.08;27.99;102119.88;4967725;28;20040;-81
2022/03/20 11:20:23;;;;;;;28.48;18.98;;;;;;;9.07;28.05;102119.03;4967749;28;20058;-79
2022/03/20 11:22:51;;;;;;;27.85;19.65;;;;;;;9.18;28.55;102126.78;4936981;29;20392;-79
2022/03/20 11:25:21;;;;;;;32.67;20.17;;;;;;;9.03;28.46;102096.50;4967431;28;20087;-79
2022/03/20 11:27:53;;;;;;;28.48;19.67;;;;;;;9.14;29.06;102110.38;4935324;29;20118;-74
2022/03/20 11:30:20;;;;;;;26.88;18.95;;;;;;;9.25;28.17;102110.31;4936165;29;20036;-78
2022/03/20 11:32:48;;;;;;;32.58;21.30;;;;;;;9.17;28.20;102104.28;4936886;29;20035;-79
2022/03/20 11:35:14;;;;;;;24.08;16.50;;;;;;;9.20;27.56;102099.06;4966912;28;20028;-79
2022/03/20 11:37:45;;;;;;;26.83;18.45;;;;;;;9.25;27.86;102093.00;4936441;29;20039;-78
2022/03/20 11:40:22;;;;;;;21.77;16.92;;;;;;;9.33;28.32;102094.72;4966879;28;20066;-78
2022/03/20 11:43:10;;;;;;;25.10;18.13;;;;;;;9.33;26.96;102079.97;4935644;29;20062;-78
2022/03/20 11:45:35;;;;;;;28.35;18.67;;;;;;;9.24;27.37;102080.00;4966146;28;20027;-74